CST,Max TemperatureF,Mean TemperatureF,Min TemperatureF,Max Dew PointF,MeanDew PointF,Min DewpointF,Max Humidity, Mean Humidity, Min Humidity, Max Sea Level PressureIn, Mean Sea Level PressureIn, Min Sea Level PressureIn, Max VisibilityMiles, Mean VisibilityMiles, Min VisibilityMiles, Max Wind SpeedMPH, Mean Wind SpeedMPH, Max Gust SpeedMPH,PrecipitationIn, CloudCover, Events, WindDirDegrees
2012-12-1,78,68,59,63,59,54,90,75,56,30.17,30.11,30.05,10,10,10,15,9,22,0.00,3,,170
2012-12-2,78,71,64,64,63,60,94,81,56,30.20,30.14,30.08,10,10,7,14,10,20,0.00,5,,178
2012-12-3,72,68,64,67,64,62,97,90,71,30.11,30.07,30.01,10,9,3,18,9,24,0.00,6,,157
2012-12-4,73,68,61,66,64,57,100,88,73,30.19,30.11,30.06,10,9,4,14,7,22,0.00,6,,180
2012-12-5,63,58,53,58,54,51,96,85,68,30.25,30.17,30.09,10,9,4,9,6,,0.00,8,,36
2012-12-6,59,55,51,56,53,51,100,95,81,30.08,29.99,29.91,10,6,2,9,4,,0.01,7,,169
2012-12-7,71,63,55,61,58,55,100,91,68,29.94,29.89,29.82,10,7,0,12,7,,0.00,6,Fog,163
2012-12-8,75,68,60,65,63,60,100,92,64,29.93,29.88,29.81,10,6,2,13,6,,0.00,6,,169
2012-12-9,75,66,54,65,63,51,100,87,62,29.90,29.84,29.77,10,9,2,16,9,22,0.23,6,Rain-Thunderstorm,188
2012-12-10,53,44,34,50,34,21,96,68,46,30.11,29.98,29.86,10,8,2,18,10,26,0.32,5,Rain-Snow-Thunderstorm,314
2012-12-11,50,39,28,29,23,17,85,60,28,30.27,30.19,30.11,10,10,9,8,3,,0.00,0,Snow,3
2012-12-12,53,40,26,28,24,17,96,62,25,30.39,30.31,30.26,10,10,10,7,1,,0.00,0,,147
2012-12-13,57,42,27,31,27,23,96,64,26,30.38,30.33,30.26,10,10,9,9,2,,0.00,0,Snow,140
2012-12-14,57,44,30,52,37,27,88,66,42,30.26,30.13,29.97,10,10,9,13,4,,0.00,5,Rain-Snow,131
2012-12-15,73,65,57,63,58,51,97,84,55,29.96,29.90,29.84,10,8,1,14,9,23,0.18,7,Rain,189
2012-12-16,66,62,57,63,60,55,100,94,77,29.85,29.78,29.71,10,7,0,12,5,17,0.12,6,Fog-Rain-Thunderstorm,197
2012-12-17,63,54,42,58,48,35,100,80,35,29.91,29.81,29.73,10,7,0,16,6,24,0.01,2,Fog,240
2012-12-18,73,56,39,52,42,38,100,65,28,29.91,29.87,29.81,10,10,10,13,5,16,0.00,0,,179
2012-12-19,75,64,53,65,60,51,100,80,66,29.88,29.77,29.64,10,10,10,20,10,30,0.00,4,,169
2012-12-20,73,56,39,65,29,9,94,50,19,30.38,30.08,29.69,10,9,2,24,17,41,0.13,2,Rain-Thunderstorm,294
2012-12-21,61,46,30,27,18,11,65,38,17,30.48,30.39,30.33,10,10,10,9,5,,0.00,0,,280
2012-12-22,64,47,30,44,29,22,89,50,21,30.36,30.26,30.13,10,10,10,13,5,22,0.00,0,,182
2012-12-23,69,62,54,59,54,45,83,75,68,30.11,29.95,29.82,10,10,10,20,8,29,0.00,6,Rain,180
2012-12-24,62,50,39,52,40,32,89,65,48,29.99,29.90,29.84,10,10,10,9,4,,0.00,0,,290
2012-12-25,53,44,34,52,44,31,100,94,83,29.96,29.69,29.52,10,6,1,18,10,31,2.31,8,Rain-Thunderstorm,20
2012-12-26,37,32,27,31,26,23,92,80,62,30.24,30.15,29.97,10,10,9,16,11,25,0.00,5,,304
2012-12-27,46,36,27,39,32,26,96,81,56,30.18,30.08,29.94,10,8,3,12,5,,0.09,5,Rain,109
2012-12-28,43,40,36,42,39,30,100,93,79,30.15,29.93,29.83,10,8,2,16,6,24,0.34,8,Rain,359
2012-12-29,45,36,28,28,23,19,85,64,37,30.47,30.33,30.16,10,10,10,13,9,20,0.00,1,,310
2012-12-30,46,35,24,29,25,21,92,65,42,30.53,30.44,30.32,10,10,10,10,3,,0.00,0,,142
2012-12-31,52,46,39,52,45,30,100,89,58,30.30,30.07,29.98,10,6,2,13,6,,1.00,8,Rain,85